createdAt,value
2023-03-04T00:00:17.489Z,853.21
2023-03-04T00:01:17.486Z,853.21
2023-03-04T00:02:17.627Z,853.24
2023-03-04T00:03:17.497Z,853.27
2023-03-04T00:04:17.458Z,853.27
2023-03-04T00:05:17.457Z,853.25
2023-03-04T00:06:17.434Z,853.31
2023-03-04T00:07:17.443Z,853.28
2023-03-04T00:08:17.408Z,853.31
2023-03-04T00:09:17.411Z,853.30
2023-03-04T00:10:17.392Z,853.27
2023-03-04T00:11:17.391Z,853.33
2023-03-04T00:12:17.373Z,853.33
2023-03-04T00:13:17.354Z,853.38
2023-03-04T00:14:17.348Z,853.32
2023-03-04T00:15:17.356Z,853.33
2023-03-04T00:16:17.342Z,853.34
2023-03-04T00:17:17.330Z,853.33
2023-03-04T00:18:17.323Z,853.37
2023-03-04T00:19:17.300Z,853.36
2023-03-04T00:20:17.295Z,853.33
2023-03-04T00:21:17.274Z,853.31
2023-03-04T00:22:17.263Z,853.34
2023-03-04T00:23:17.280Z,853.32
2023-03-04T00:24:17.240Z,853.35
2023-03-04T00:25:17.235Z,853.30
2023-03-04T00:26:17.233Z,853.36
2023-03-04T00:27:17.206Z,853.32
2023-03-04T00:28:17.204Z,853.35
2023-03-04T00:29:17.199Z,853.39
2023-03-04T00:30:17.177Z,853.37
2023-03-04T00:31:17.241Z,853.37
2023-03-04T00:32:17.189Z,853.36
2023-03-04T00:33:17.155Z,853.36
2023-03-04T00:34:17.133Z,853.38
2023-03-04T00:35:17.127Z,853.41
2023-03-04T00:36:17.120Z,853.39
2023-03-04T00:37:17.113Z,853.34
2023-03-04T00:38:17.110Z,853.36
2023-03-04T00:39:17.098Z,853.37
2023-03-04T00:40:17.076Z,853.39
2023-03-04T00:41:17.062Z,853.39
2023-03-04T00:42:17.051Z,853.41
2023-03-04T00:43:17.036Z,853.38
2023-03-04T00:44:17.058Z,853.36
2023-03-04T00:45:17.028Z,853.37
2023-03-04T00:46:17.124Z,853.38
2023-03-04T00:47:16.997Z,853.41
2023-03-04T00:48:16.995Z,853.41
2023-03-04T00:49:16.977Z,853.38
2023-03-04T00:50:16.977Z,853.42
2023-03-04T00:51:16.958Z,853.42
2023-03-04T00:52:16.958Z,853.41
2023-03-04T00:53:16.941Z,853.42
2023-03-04T00:54:16.934Z,853.46
2023-03-04T00:55:16.936Z,853.42
2023-03-04T00:56:16.903Z,853.45
2023-03-04T00:57:16.886Z,853.44
2023-03-04T00:58:16.899Z,853.42
2023-03-04T00:59:16.870Z,853.41
2023-03-04T01:00:16.870Z,853.36
2023-03-04T01:01:16.856Z,853.36
2023-03-04T01:02:16.863Z,853.38
2023-03-04T01:03:16.825Z,853.38
2023-03-04T01:04:16.833Z,853.36
2023-03-04T01:05:16.802Z,853.31
2023-03-04T01:06:16.814Z,853.32
2023-03-04T01:07:16.784Z,853.33
2023-03-04T01:08:16.774Z,853.30
2023-03-04T01:09:16.768Z,853.31
2023-03-04T01:10:16.770Z,853.28
2023-03-04T01:11:16.777Z,853.27
2023-03-04T01:12:16.734Z,853.27
2023-03-04T01:13:16.725Z,853.24
2023-03-04T01:14:16.718Z,853.23
2023-03-04T01:15:16.695Z,853.22
2023-03-04T01:16:16.752Z,853.17
2023-03-04T01:17:16.723Z,853.17
2023-03-04T01:18:16.681Z,853.20
2023-03-04T01:19:16.654Z,853.17
2023-03-04T01:20:16.656Z,853.15
2023-03-04T01:21:16.677Z,853.14
2023-03-04T01:22:16.656Z,853.18
2023-03-04T01:23:16.615Z,853.13
2023-03-04T01:24:16.606Z,853.15
2023-03-04T01:25:16.596Z,853.14
2023-03-04T01:26:16.584Z,853.14
2023-03-04T01:27:16.600Z,853.14
2023-03-04T01:28:16.579Z,853.15
2023-03-04T01:29:16.555Z,853.08
2023-03-04T01:30:16.562Z,853.10
2023-03-04T01:31:16.581Z,853.11
2023-03-04T01:32:16.596Z,853.10
2023-03-04T01:33:16.508Z,853.13
2023-03-04T01:34:16.497Z,853.11
2023-03-04T01:35:16.498Z,853.10
2023-03-04T01:36:16.488Z,853.06
2023-03-04T01:37:16.463Z,853.05
2023-03-04T01:38:16.465Z,853.06
2023-03-04T01:39:16.446Z,853.05
2023-03-04T01:40:16.461Z,853.01
2023-03-04T01:41:16.428Z,852.99
2023-03-04T01:42:16.422Z,853.02
2023-03-04T01:43:16.455Z,853.05
2023-03-04T01:44:16.396Z,853.03
2023-03-04T01:45:16.385Z,853.05
2023-03-04T01:46:16.407Z,853.02
2023-03-04T01:47:16.358Z,853.07
2023-03-04T01:48:16.366Z,853.02
2023-03-04T01:49:16.442Z,853.07
2023-03-04T01:50:16.329Z,852.98
2023-03-04T01:51:16.327Z,853.00
2023-03-04T01:52:16.311Z,852.98
2023-03-04T01:53:16.296Z,853.00
2023-03-04T01:54:16.300Z,853.00
2023-03-04T01:55:16.295Z,852.96
2023-03-04T01:56:16.269Z,852.99
2023-03-04T01:57:16.255Z,853.03
2023-03-04T01:58:16.246Z,852.97
2023-03-04T01:59:16.264Z,852.93
2023-03-04T02:00:16.230Z,852.96
2023-03-04T02:01:16.252Z,852.95
2023-03-04T02:02:16.201Z,852.94
2023-03-04T02:03:16.190Z,852.95
2023-03-04T02:04:16.229Z,852.98
2023-03-04T02:05:16.181Z,852.96
2023-03-04T02:06:16.167Z,852.96
2023-03-04T02:07:16.164Z,852.95
2023-03-04T02:08:16.139Z,852.98
2023-03-04T02:09:16.125Z,852.91
2023-03-04T02:10:16.132Z,852.94
2023-03-04T02:11:16.102Z,852.97
2023-03-04T02:12:16.113Z,852.95
2023-03-04T02:13:16.087Z,852.93
2023-03-04T02:14:16.083Z,852.95
2023-03-04T02:15:16.081Z,852.91
2023-03-04T02:16:16.100Z,852.91
2023-03-04T02:17:16.038Z,852.92
2023-03-04T02:18:16.049Z,852.95
2023-03-04T02:19:16.031Z,852.91
2023-03-04T02:20:16.022Z,852.92
2023-03-04T02:21:16.000Z,852.92
2023-03-04T02:22:15.998Z,852.89
2023-03-04T02:23:15.977Z,852.85
2023-03-04T02:24:15.986Z,852.86
2023-03-04T02:25:15.990Z,852.84
2023-03-04T02:26:15.953Z,852.87
2023-03-04T02:27:15.939Z,852.83
2023-03-04T02:28:15.944Z,852.84
2023-03-04T02:29:15.911Z,852.81
2023-03-04T02:30:15.920Z,852.84
2023-03-04T02:31:15.928Z,852.81
2023-03-04T02:32:15.913Z,852.76
2023-03-04T02:33:15.886Z,852.81
2023-03-04T02:34:15.869Z,852.79
2023-03-04T02:35:15.846Z,852.79
2023-03-04T02:36:15.867Z,852.77
2023-03-04T02:37:15.827Z,852.78
2023-03-04T02:38:15.818Z,852.79
2023-03-04T02:39:15.807Z,852.77
2023-03-04T02:40:15.808Z,852.76
2023-03-04T02:41:15.782Z,852.75
2023-03-04T02:42:15.788Z,852.77
2023-03-04T02:43:15.767Z,852.76
2023-03-04T02:44:15.763Z,852.71
2023-03-04T02:45:15.739Z,852.69
2023-03-04T02:46:15.809Z,852.77
2023-03-04T02:47:15.754Z,852.73
2023-03-04T02:48:15.712Z,852.73
2023-03-04T02:49:15.699Z,852.75
2023-03-04T02:50:15.692Z,852.68
2023-03-04T02:51:15.675Z,852.71
2023-03-04T02:52:15.685Z,852.71
2023-03-04T02:53:15.668Z,852.72
2023-03-04T02:54:15.646Z,852.69
2023-03-04T02:55:15.633Z,852.68
2023-03-04T02:56:15.627Z,852.67
2023-03-04T02:57:15.628Z,852.65
2023-03-04T02:58:15.609Z,852.70
2023-03-04T02:59:15.603Z,852.70
2023-03-04T03:00:15.588Z,852.65
2023-03-04T03:01:15.571Z,852.63
2023-03-04T03:02:15.562Z,852.65
2023-03-04T03:03:15.573Z,852.66
2023-03-04T03:04:15.581Z,852.66
2023-03-04T03:05:15.541Z,852.66
2023-03-04T03:06:15.526Z,852.69
2023-03-04T03:07:15.506Z,852.65
2023-03-04T03:08:15.500Z,852.66
2023-03-04T03:09:15.490Z,852.63
2023-03-04T03:10:15.499Z,852.61
2023-03-04T03:11:15.474Z,852.63
2023-03-04T03:12:15.457Z,852.62
2023-03-04T03:13:15.452Z,852.62
2023-03-04T03:14:15.433Z,852.63
2023-03-04T03:15:15.424Z,852.61
2023-03-04T03:16:15.469Z,852.66
2023-03-04T03:17:15.405Z,852.61
2023-03-04T03:18:15.392Z,852.65
2023-03-04T03:19:15.423Z,852.62
2023-03-04T03:20:15.371Z,852.61
2023-03-04T03:21:15.354Z,852.60
2023-03-04T03:22:15.349Z,852.60
2023-03-04T03:23:15.338Z,852.61
2023-03-04T03:24:15.332Z,852.61
2023-03-04T03:25:15.323Z,852.60
2023-03-04T03:26:15.316Z,852.59
2023-03-04T03:27:15.289Z,852.62
2023-03-04T03:28:15.281Z,852.59
2023-03-04T03:29:15.271Z,852.60
2023-03-04T03:30:15.280Z,852.55
2023-03-04T03:31:15.307Z,852.54
2023-03-04T03:32:15.267Z,852.56
2023-03-04T03:33:15.222Z,852.60
2023-03-04T03:34:15.216Z,852.54
2023-03-04T03:35:15.234Z,852.54
2023-03-04T03:36:15.215Z,852.54
2023-03-04T03:37:15.190Z,852.59
2023-03-04T03:38:15.172Z,852.57
2023-03-04T03:39:15.165Z,852.58
2023-03-04T03:40:15.151Z,852.54
2023-03-04T03:41:15.148Z,852.54
2023-03-04T03:42:15.133Z,852.53
2023-03-04T03:43:15.125Z,852.56
2023-03-04T03:44:15.121Z,852.57
2023-03-04T03:45:15.096Z,852.55
2023-03-04T03:46:15.086Z,852.54
2023-03-04T03:47:15.101Z,852.52
2023-03-04T03:48:15.068Z,852.55
2023-03-04T03:49:15.062Z,852.55
2023-03-04T03:50:15.055Z,852.49
2023-03-04T03:51:15.053Z,852.47
2023-03-04T03:52:15.039Z,852.50
2023-03-04T03:53:15.023Z,852.49
2023-03-04T03:54:15.007Z,852.45
2023-03-04T03:55:14.999Z,852.44
2023-03-04T03:56:14.996Z,852.49
2023-03-04T03:57:14.967Z,852.48
2023-03-04T03:58:14.973Z,852.50
2023-03-04T03:59:14.962Z,852.48
2023-03-04T04:00:14.942Z,852.47
2023-03-04T04:01:14.931Z,852.52
2023-03-04T04:02:15.072Z,852.53
2023-03-04T04:03:14.905Z,852.54
2023-03-04T04:04:14.898Z,852.47
2023-03-04T04:05:14.897Z,852.52
2023-03-04T04:06:14.876Z,852.51
2023-03-04T04:07:14.883Z,852.54
2023-03-04T04:08:14.874Z,852.49
2023-03-04T04:09:14.851Z,852.51
2023-03-04T04:10:14.839Z,852.53
2023-03-04T04:11:14.822Z,852.53
2023-03-04T04:12:14.815Z,852.51
2023-03-04T04:13:14.800Z,852.55
2023-03-04T04:14:14.801Z,852.54
2023-03-04T04:15:14.805Z,852.55
2023-03-04T04:16:14.918Z,852.55
2023-03-04T04:17:14.763Z,852.57
2023-03-04T04:18:14.759Z,852.56
2023-03-04T04:19:14.800Z,852.62
2023-03-04T04:20:14.729Z,852.57
2023-03-04T04:21:14.748Z,852.56
2023-03-04T04:22:14.705Z,852.53
2023-03-04T04:23:14.720Z,852.54
2023-03-04T04:24:14.688Z,852.61
2023-03-04T04:25:14.720Z,852.57
2023-03-04T04:26:14.664Z,852.54
2023-03-04T04:27:14.665Z,852.55
2023-03-04T04:28:14.678Z,852.56
2023-03-04T04:29:14.623Z,852.56
2023-03-04T04:30:14.614Z,852.56
2023-03-04T04:31:14.708Z,852.56
2023-03-04T04:32:14.627Z,852.59
2023-03-04T04:33:14.604Z,852.58
2023-03-04T04:34:14.581Z,852.61
2023-03-04T04:35:14.574Z,852.59
2023-03-04T04:36:14.576Z,852.58
2023-03-04T04:37:14.539Z,852.57
2023-03-04T04:38:14.524Z,852.55
2023-03-04T04:39:14.540Z,852.59
2023-03-04T04:40:14.509Z,852.57
2023-03-04T04:41:14.503Z,852.57
2023-03-04T04:42:14.487Z,852.55
2023-03-04T04:43:14.482Z,852.54
2023-03-04T04:44:14.461Z,852.57
2023-03-04T04:45:14.465Z,852.54
2023-03-04T04:46:14.505Z,852.59
2023-03-04T04:47:14.461Z,852.54
2023-03-04T04:48:14.429Z,852.58
2023-03-04T04:49:14.448Z,852.60
2023-03-04T04:50:14.397Z,852.60
2023-03-04T04:51:14.409Z,852.58
2023-03-04T04:52:14.374Z,852.60
2023-03-04T04:53:14.378Z,852.61
2023-03-04T04:54:14.372Z,852.61
2023-03-04T04:55:14.364Z,852.59
2023-03-04T04:56:14.329Z,852.59
2023-03-04T04:57:14.334Z,852.61
2023-03-04T04:58:14.308Z,852.63
2023-03-04T04:59:14.319Z,852.63
2023-03-04T05:00:14.309Z,852.61
2023-03-04T05:01:14.352Z,852.61
2023-03-04T05:02:14.267Z,852.67
2023-03-04T05:03:14.292Z,852.64
2023-03-04T05:04:14.262Z,852.62
2023-03-04T05:05:14.243Z,852.65
2023-03-04T05:06:14.245Z,852.63
2023-03-04T05:07:14.242Z,852.70
2023-03-04T05:08:14.211Z,852.70
2023-03-04T05:09:14.206Z,852.75
2023-03-04T05:10:14.190Z,852.70
2023-03-04T05:11:14.204Z,852.68
2023-03-04T05:12:14.184Z,852.70
2023-03-04T05:13:14.158Z,852.74
2023-03-04T05:14:14.151Z,852.73
2023-03-04T05:15:14.148Z,852.75
2023-03-04T05:16:14.152Z,852.75
2023-03-04T05:17:14.120Z,852.73
2023-03-04T05:18:14.125Z,852.72
2023-03-04T05:19:14.097Z,852.74
2023-03-04T05:20:14.079Z,852.73
2023-03-04T05:21:14.082Z,852.71
2023-03-04T05:22:14.073Z,852.72
2023-03-04T05:23:14.068Z,852.77
2023-03-04T05:24:14.039Z,852.74
2023-03-04T05:25:14.030Z,852.74
2023-03-04T05:26:14.016Z,852.78
2023-03-04T05:27:14.029Z,852.79
2023-03-04T05:28:14.005Z,852.77
2023-03-04T05:29:14.020Z,852.79
2023-03-04T05:30:13.974Z,852.80
2023-03-04T05:31:14.020Z,852.80
2023-03-04T05:32:13.994Z,852.74
2023-03-04T05:33:13.946Z,852.77
2023-03-04T05:34:13.938Z,852.76
2023-03-04T05:35:13.940Z,852.79
2023-03-04T05:36:13.921Z,852.79
2023-03-04T05:37:13.902Z,852.79
2023-03-04T05:38:13.890Z,852.74
2023-03-04T05:39:13.885Z,852.77
2023-03-04T05:40:13.888Z,852.77
2023-03-04T05:41:13.862Z,852.75
2023-03-04T05:42:13.848Z,852.77
2023-03-04T05:43:13.863Z,852.78
2023-03-04T05:44:13.826Z,852.73
2023-03-04T05:45:13.827Z,852.74
2023-03-04T05:46:13.842Z,852.71
2023-03-04T05:47:13.805Z,852.75
2023-03-04T05:48:13.785Z,852.76
2023-03-04T05:49:13.792Z,852.76
2023-03-04T05:50:13.775Z,852.77
2023-03-04T05:51:13.772Z,852.77
2023-03-04T05:52:13.754Z,852.73
2023-03-04T05:53:13.736Z,852.76
2023-03-04T05:54:13.728Z,852.77
2023-03-04T05:55:13.726Z,852.72
2023-03-04T05:56:13.709Z,852.76
2023-03-04T05:57:13.695Z,852.75
2023-03-04T05:58:13.690Z,852.75
2023-03-04T05:59:13.692Z,852.74
2023-03-04T06:00:13.657Z,852.73
2023-03-04T06:01:13.680Z,852.74
2023-03-04T06:02:13.636Z,852.73
2023-03-04T06:03:13.631Z,852.76
2023-03-04T06:04:13.678Z,852.78
2023-03-04T06:05:13.610Z,852.79
2023-03-04T06:06:13.604Z,852.78
2023-03-04T06:07:13.620Z,852.85
2023-03-04T06:08:13.589Z,852.87
2023-03-04T06:09:13.570Z,852.85
2023-03-04T06:10:13.558Z,852.92
2023-03-04T06:11:13.545Z,852.86
2023-03-04T06:12:13.530Z,852.91
2023-03-04T06:13:13.538Z,852.91
2023-03-04T06:14:13.543Z,852.89
2023-03-04T06:15:13.530Z,852.96
2023-03-04T06:16:13.531Z,852.92
2023-03-04T06:17:13.480Z,852.96
2023-03-04T06:18:13.466Z,852.94
2023-03-04T06:19:13.472Z,852.96
2023-03-04T06:20:13.442Z,852.99
2023-03-04T06:21:13.436Z,852.95
2023-03-04T06:22:13.431Z,852.99
2023-03-04T06:23:13.415Z,852.97
2023-03-04T06:24:13.408Z,853.01
2023-03-04T06:25:13.438Z,853.02
2023-03-04T06:26:13.381Z,852.97
2023-03-04T06:27:13.375Z,853.02
2023-03-04T06:28:13.372Z,853.05
2023-03-04T06:29:13.352Z,853.03
2023-03-04T06:30:13.349Z,853.07
2023-03-04T06:31:13.406Z,853.07
2023-03-04T06:32:13.317Z,853.07
2023-03-04T06:33:13.308Z,853.06
2023-03-04T06:34:13.302Z,853.04
2023-03-04T06:35:13.286Z,853.10
2023-03-04T06:36:13.286Z,853.11
2023-03-04T06:37:13.278Z,853.13
2023-03-04T06:38:13.270Z,853.10
2023-03-04T06:39:13.246Z,853.10
2023-03-04T06:40:13.252Z,853.09
2023-03-04T06:41:13.222Z,853.14
2023-03-04T06:42:13.212Z,853.12
2023-03-04T06:43:13.203Z,853.18
2023-03-04T06:44:13.186Z,853.12
2023-03-04T06:45:13.190Z,853.13
2023-03-04T06:46:13.209Z,853.13
2023-03-04T06:47:13.182Z,853.12
2023-03-04T06:48:13.147Z,853.14
2023-03-04T06:49:13.136Z,853.14
2023-03-04T06:50:13.133Z,853.15
2023-03-04T06:51:13.139Z,853.13
2023-03-04T06:52:13.108Z,853.13
2023-03-04T06:53:13.095Z,853.18
2023-03-04T06:54:13.089Z,853.23
2023-03-04T06:55:13.073Z,853.15
2023-03-04T06:56:13.058Z,853.19
2023-03-04T06:57:13.064Z,853.17
2023-03-04T06:58:13.044Z,853.21
2023-03-04T06:59:13.031Z,853.13
2023-03-04T07:00:13.023Z,853.20
2023-03-04T07:01:13.150Z,853.19
2023-03-04T07:02:13.032Z,853.18
2023-03-04T07:03:13.014Z,853.21
2023-03-04T07:04:13.061Z,853.19
2023-03-04T07:05:12.972Z,853.23
2023-03-04T07:06:12.958Z,853.23
2023-03-04T07:07:12.943Z,853.26
2023-03-04T07:08:12.944Z,853.21
2023-03-04T07:09:12.931Z,853.25
2023-03-04T07:10:12.918Z,853.25
2023-03-04T07:11:12.904Z,853.26
2023-03-04T07:12:12.889Z,853.23
2023-03-04T07:13:12.910Z,853.26
2023-03-04T07:14:12.887Z,853.24
2023-03-04T07:15:12.875Z,853.23
2023-03-04T07:16:12.870Z,853.25
2023-03-04T07:17:12.863Z,853.29
2023-03-04T07:18:12.824Z,853.22
2023-03-04T07:19:12.926Z,853.28
2023-03-04T07:20:12.801Z,853.29
2023-03-04T07:21:12.795Z,853.28
2023-03-04T07:22:12.792Z,853.27
2023-03-04T07:23:12.780Z,853.31
2023-03-04T07:24:12.769Z,853.32
2023-03-04T07:25:12.776Z,853.32
2023-03-04T07:26:12.740Z,853.34
2023-03-04T07:27:12.745Z,853.31
2023-03-04T07:28:12.729Z,853.28
2023-03-04T07:29:12.708Z,853.31
2023-03-04T07:30:12.696Z,853.30
2023-03-04T07:31:12.700Z,853.30
2023-03-04T07:32:12.805Z,853.28
2023-03-04T07:33:12.670Z,853.27
2023-03-04T07:34:12.672Z,853.28
2023-03-04T07:35:12.678Z,853.31
2023-03-04T07:36:12.632Z,853.33
2023-03-04T07:37:12.626Z,853.28
2023-03-04T07:38:12.616Z,853.30
2023-03-04T07:39:12.602Z,853.32
2023-03-04T07:40:12.608Z,853.28
2023-03-04T07:41:12.592Z,853.32
2023-03-04T07:42:12.567Z,853.24
2023-03-04T07:43:12.562Z,853.29
2023-03-04T07:44:13.359Z,853.26
2023-03-04T07:45:12.543Z,853.27
2023-03-04T07:46:12.606Z,853.28
2023-03-04T07:47:12.519Z,853.25
2023-03-04T07:48:12.505Z,853.27
2023-03-04T07:49:12.510Z,853.26
2023-03-04T07:50:12.485Z,853.25
2023-03-04T07:51:12.535Z,853.27
2023-03-04T07:52:12.496Z,853.27
2023-03-04T07:53:12.456Z,853.32
2023-03-04T07:54:12.443Z,853.30
2023-03-04T07:55:12.487Z,853.25
2023-03-04T07:56:12.425Z,853.26
2023-03-04T07:57:12.435Z,853.24
2023-03-04T07:58:12.451Z,853.23
2023-03-04T07:59:12.418Z,853.26
2023-03-04T08:00:12.380Z,853.29
2023-03-04T08:01:12.400Z,853.33
2023-03-04T08:02:12.434Z,853.25
2023-03-04T08:03:12.420Z,853.28
2023-03-04T08:04:12.503Z,853.28
2023-03-04T08:05:12.369Z,853.30
2023-03-04T08:06:12.320Z,853.28
2023-03-04T08:07:12.327Z,853.33
2023-03-04T08:08:12.294Z,853.32
2023-03-04T08:09:12.341Z,853.30
2023-03-04T08:10:12.272Z,853.24
2023-03-04T08:11:12.280Z,853.29
2023-03-04T08:12:12.252Z,853.28
2023-03-04T08:13:12.248Z,853.25
2023-03-04T08:14:12.242Z,853.29
2023-03-04T08:15:12.260Z,853.29
2023-03-04T08:16:12.278Z,853.26
2023-03-04T08:17:12.210Z,853.30
2023-03-04T08:18:12.188Z,853.28
2023-03-04T08:19:12.532Z,853.26
2023-03-04T08:20:12.158Z,853.24
2023-03-04T08:21:12.211Z,853.25
2023-03-04T08:22:12.136Z,853.31
2023-03-04T08:23:12.153Z,853.32
2023-03-04T08:24:12.117Z,853.27
2023-03-04T08:25:12.111Z,853.29
2023-03-04T08:26:12.098Z,853.31
2023-03-04T08:27:12.152Z,853.25
2023-03-04T08:28:12.072Z,853.31
2023-03-04T08:29:12.063Z,853.25
2023-03-04T08:30:12.050Z,853.26
2023-03-04T08:31:12.177Z,853.25
2023-03-04T08:32:12.131Z,853.27
2023-03-04T08:33:12.092Z,853.26
2023-03-04T08:34:12.006Z,853.28
2023-03-04T08:35:12.002Z,853.30
2023-03-04T08:36:11.981Z,853.27
2023-03-04T08:37:11.977Z,853.27
2023-03-04T08:38:11.958Z,853.29
2023-03-04T08:39:12.020Z,853.23
2023-03-04T08:40:11.937Z,853.27
2023-03-04T08:41:11.931Z,853.31
2023-03-04T08:42:11.917Z,853.30
2023-03-04T08:43:12.088Z,853.34
2023-03-04T08:44:11.896Z,853.32
2023-03-04T08:45:11.937Z,853.30
2023-03-04T08:46:11.902Z,853.28
2023-03-04T08:47:11.862Z,853.32
2023-03-04T08:48:11.865Z,853.33
2023-03-04T08:49:11.852Z,853.31
2023-03-04T08:50:11.840Z,853.30
2023-03-04T08:51:11.873Z,853.34
2023-03-04T08:52:11.813Z,853.34
2023-03-04T08:53:11.803Z,853.31
2023-03-04T08:54:11.792Z,853.30
2023-03-04T08:55:11.842Z,853.34
2023-03-04T08:56:11.772Z,853.34
2023-03-04T08:57:11.837Z,853.30
2023-03-04T08:58:11.751Z,853.29
2023-03-04T08:59:11.772Z,853.23
2023-03-04T09:00:11.737Z,853.27
2023-03-04T09:01:11.770Z,853.22
2023-03-04T09:02:11.709Z,853.24
2023-03-04T09:03:11.840Z,853.25
2023-03-04T09:04:11.688Z,853.24
2023-03-04T09:05:11.676Z,853.17
2023-03-04T09:06:11.662Z,853.24
2023-03-04T09:07:11.660Z,853.25
2023-03-04T09:08:11.650Z,853.24
2023-03-04T09:09:11.653Z,853.26
2023-03-04T09:10:11.622Z,853.19
2023-03-04T09:11:11.641Z,853.22
2023-03-04T09:12:11.613Z,853.20
2023-03-04T09:13:11.591Z,853.22
2023-03-04T09:14:11.579Z,853.18
2023-03-04T09:15:12.171Z,853.11
2023-03-04T09:16:11.610Z,853.14
2023-03-04T09:17:11.546Z,853.08
2023-03-04T09:18:11.534Z,853.08
2023-03-04T09:19:11.521Z,853.07
2023-03-04T09:20:11.572Z,853.06
2023-03-04T09:21:11.804Z,853.12
2023-03-04T09:22:11.486Z,853.06
2023-03-04T09:23:11.531Z,853.10
2023-03-04T09:24:11.467Z,853.04
2023-03-04T09:25:13.098Z,853.08
2023-03-04T09:26:11.446Z,853.06
2023-03-04T09:27:11.471Z,853.01
2023-03-04T09:28:11.478Z,853.03
2023-03-04T09:29:11.422Z,853.00
2023-03-04T09:30:11.399Z,852.99
2023-03-04T09:31:11.426Z,853.01
2023-03-04T09:32:11.430Z,852.94
2023-03-04T09:33:11.374Z,852.91
2023-03-04T09:34:11.403Z,852.98
2023-03-04T09:35:11.350Z,852.92
2023-03-04T09:36:11.346Z,852.94
2023-03-04T09:37:11.331Z,852.88
2023-03-04T09:38:11.332Z,852.94
2023-03-04T09:39:11.305Z,852.91
2023-03-04T09:40:11.356Z,852.92
2023-03-04T09:41:11.307Z,852.86
2023-03-04T09:42:11.271Z,852.89
2023-03-04T09:43:11.291Z,852.85
2023-03-04T09:44:11.248Z,852.90
2023-03-04T09:45:11.240Z,852.84
2023-03-04T09:46:11.281Z,852.86
2023-03-04T09:47:11.231Z,852.87
2023-03-04T09:48:11.213Z,852.85
2023-03-04T09:49:11.198Z,852.83
2023-03-04T09:50:11.182Z,852.82
2023-03-04T09:51:11.200Z,852.81
2023-03-04T09:52:11.224Z,852.83
2023-03-04T09:53:11.154Z,852.82
2023-03-04T09:54:11.137Z,852.78
2023-03-04T09:55:11.133Z,852.80
2023-03-04T09:56:11.116Z,852.77
2023-03-04T09:57:11.107Z,852.79
2023-03-04T09:58:11.136Z,852.80
2023-03-04T09:59:11.107Z,852.80
2023-03-04T10:00:11.076Z,852.73
2023-03-04T10:01:11.064Z,852.77
2023-03-04T10:02:11.052Z,852.74
2023-03-04T10:03:11.106Z,852.75
2023-03-04T10:04:11.089Z,852.71
2023-03-04T10:05:11.024Z,852.70
2023-03-04T10:06:11.007Z,852.70
2023-03-04T10:07:10.999Z,852.74
2023-03-04T10:08:10.982Z,852.68
2023-03-04T10:09:10.984Z,852.68
2023-03-04T10:10:11.023Z,852.69
2023-03-04T10:11:10.953Z,852.69
2023-03-04T10:12:10.947Z,852.71
2023-03-04T10:13:11.956Z,852.73
2023-03-04T10:14:10.931Z,852.67
2023-03-04T10:15:10.930Z,852.75
2023-03-04T10:16:10.991Z,852.66
2023-03-04T10:17:10.924Z,852.68
2023-03-04T10:18:10.875Z,852.70
2023-03-04T10:19:10.875Z,852.65
2023-03-04T10:20:10.865Z,852.59
2023-03-04T10:21:10.845Z,852.59
2023-03-04T10:22:10.862Z,852.60
2023-03-04T10:23:10.852Z,852.61
2023-03-04T10:24:10.814Z,852.64
2023-03-04T10:25:10.802Z,852.60
2023-03-04T10:26:10.788Z,852.57
2023-03-04T10:27:10.774Z,852.62
2023-03-04T10:28:10.802Z,852.55
2023-03-04T10:29:10.765Z,852.57
2023-03-04T10:30:10.755Z,852.58
2023-03-04T10:31:10.811Z,852.54
2023-03-04T10:32:10.739Z,852.51
2023-03-04T10:33:10.721Z,852.53
2023-03-04T10:34:10.721Z,852.53
2023-03-04T10:35:10.716Z,852.56
2023-03-04T10:36:10.682Z,852.52
2023-03-04T10:37:10.686Z,852.49
2023-03-04T10:38:10.681Z,852.51
2023-03-04T10:39:10.643Z,852.49
2023-03-04T10:40:10.692Z,852.48
2023-03-04T10:41:10.641Z,852.49
2023-03-04T10:42:10.727Z,852.47
2023-03-04T10:43:10.595Z,852.46
2023-03-04T10:44:10.578Z,852.45
2023-03-04T10:45:10.637Z,852.49
2023-03-04T10:46:10.654Z,852.44
2023-03-04T10:47:10.568Z,852.45
2023-03-04T10:48:10.559Z,852.46
2023-03-04T10:49:10.530Z,852.47
2023-03-04T10:50:10.513Z,852.46
2023-03-04T10:51:10.516Z,852.44
2023-03-04T10:52:10.525Z,852.42
2023-03-04T10:53:10.480Z,852.38
2023-03-04T10:54:10.472Z,852.44
2023-03-04T10:55:10.490Z,852.42
2023-03-04T10:56:10.474Z,852.40
2023-03-04T10:57:10.433Z,852.39
2023-03-04T10:58:10.435Z,852.34
2023-03-04T10:59:10.417Z,852.32
2023-03-04T11:00:10.439Z,852.34
2023-03-04T11:01:10.403Z,852.31
2023-03-04T11:02:10.374Z,852.37
2023-03-04T11:03:10.389Z,852.30
2023-03-04T11:04:10.404Z,852.36
2023-03-04T11:05:10.385Z,852.36
2023-03-04T11:06:10.356Z,852.37
2023-03-04T11:07:10.328Z,852.37
2023-03-04T11:08:10.316Z,852.31
2023-03-04T11:09:10.299Z,852.36
2023-03-04T11:10:10.287Z,852.35
2023-03-04T11:11:10.288Z,852.30
2023-03-04T11:12:10.283Z,852.31
2023-03-04T11:13:10.258Z,852.36
2023-03-04T11:14:10.245Z,852.28
2023-03-04T11:15:10.230Z,852.24
2023-03-04T11:16:10.229Z,852.26
2023-03-04T11:17:10.221Z,852.27
2023-03-04T11:18:10.253Z,852.25
2023-03-04T11:19:10.204Z,852.25
2023-03-04T11:20:10.200Z,852.20
2023-03-04T11:21:10.164Z,852.16
2023-03-04T11:22:10.169Z,852.17
2023-03-04T11:23:10.143Z,852.19
2023-03-04T11:24:25.736Z,852.18
2023-03-04T11:25:11.120Z,852.14
2023-03-04T11:26:10.108Z,852.11
2023-03-04T11:27:10.102Z,852.11
2023-03-04T11:28:11.495Z,852.13
2023-03-04T11:29:10.078Z,852.11
2023-03-04T11:30:10.094Z,852.10
2023-03-04T11:31:10.053Z,852.13
2023-03-04T11:32:10.180Z,852.12
2023-03-04T11:33:10.032Z,852.12
2023-03-04T11:34:12.154Z,852.13
2023-03-04T11:35:10.029Z,852.09
2023-03-04T11:36:10.023Z,852.05
2023-03-04T11:37:09.994Z,852.08
2023-03-04T11:38:09.982Z,852.13
2023-03-04T11:39:09.992Z,852.10
2023-03-04T11:40:09.978Z,852.08
2023-03-04T11:41:09.965Z,852.08
2023-03-04T11:42:09.983Z,852.07
2023-03-04T11:43:09.961Z,852.04
2023-03-04T11:44:09.944Z,852.08
2023-03-04T11:45:26.133Z,852.06
2023-03-04T11:46:10.923Z,852.04
2023-03-04T11:47:09.904Z,852.03
2023-03-04T11:48:09.915Z,852.00
2023-03-04T11:49:09.894Z,851.98
2023-03-04T11:50:09.899Z,851.98
2023-03-04T11:51:12.040Z,851.91
2023-03-04T11:52:09.852Z,851.91
2023-03-04T11:53:09.845Z,851.93
2023-03-04T11:54:09.897Z,851.90
2023-03-04T11:55:09.828Z,851.87
2023-03-04T11:56:09.827Z,851.85
2023-03-04T11:57:11.846Z,851.83
2023-03-04T11:58:09.785Z,851.86
2023-03-04T11:59:09.779Z,851.84
2023-03-04T12:00:09.785Z,851.84
2023-03-04T12:01:09.757Z,851.85
2023-03-04T12:02:09.752Z,851.84
2023-03-04T12:03:11.526Z,851.79
2023-03-04T12:04:09.883Z,851.80
2023-03-04T12:05:09.713Z,851.81
2023-03-04T12:06:09.721Z,851.84
2023-03-04T12:07:09.718Z,851.80
2023-03-04T12:08:09.682Z,851.81
2023-03-04T12:09:09.664Z,851.75
2023-03-04T12:10:09.648Z,851.76
2023-03-04T12:11:09.645Z,851.75
2023-03-04T12:12:09.669Z,851.75
2023-03-04T12:13:09.624Z,851.73
2023-03-04T12:14:09.611Z,851.69
2023-03-04T12:15:09.608Z,851.67
2023-03-04T12:16:09.683Z,851.70
2023-03-04T12:17:09.582Z,851.67
2023-03-04T12:18:09.608Z,851.66
2023-03-04T12:19:09.569Z,851.68
2023-03-04T12:20:09.543Z,851.62
2023-03-04T12:21:09.535Z,851.67
2023-03-04T12:22:09.547Z,851.59
2023-03-04T12:23:09.538Z,851.61
2023-03-04T12:24:09.509Z,851.59
2023-03-04T12:25:09.524Z,851.58
2023-03-04T12:26:09.482Z,851.54
2023-03-04T12:27:09.470Z,851.51
2023-03-04T12:28:09.461Z,851.51